createdAt,value
2018-07-21T00:02:39.700Z,23.04
2018-07-21T00:06:43.138Z,22.96
2018-07-21T00:10:46.698Z,22.90
2018-07-21T00:14:50.183Z,22.85
2018-07-21T00:18:53.638Z,22.84
2018-07-21T00:22:57.125Z,22.82
2018-07-21T00:27:00.694Z,22.82
2018-07-21T00:31:04.229Z,22.78
2018-07-21T00:35:07.701Z,22.73
2018-07-21T00:39:15.604Z,22.70
2018-07-21T00:43:19.104Z,22.65
2018-07-21T00:47:22.549Z,22.59
2018-07-21T00:51:26.101Z,22.51
2018-07-21T00:55:29.561Z,22.46
2018-07-21T00:59:33.051Z,22.36
2018-07-21T01:03:36.534Z,22.34
2018-07-21T01:07:40.011Z,22.28
2018-07-21T01:11:43.476Z,22.24
2018-07-21T01:15:46.950Z,22.19
2018-07-21T01:19:50.452Z,22.13
2018-07-21T01:23:53.953Z,22.05
2018-07-21T01:27:57.465Z,21.99
2018-07-21T01:32:00.927Z,21.90
2018-07-21T01:36:04.393Z,21.91
2018-07-21T01:40:07.821Z,21.89
2018-07-21T01:44:11.294Z,21.89
2018-07-21T01:48:14.799Z,21.88
2018-07-21T01:52:18.295Z,21.87
2018-07-21T01:56:21.798Z,21.84
2018-07-21T02:00:25.312Z,21.80
2018-07-21T02:04:28.849Z,21.75
2018-07-21T02:08:32.932Z,21.71
2018-07-21T02:12:36.650Z,21.68
2018-07-21T02:16:40.205Z,21.66
2018-07-21T02:20:43.928Z,21.61
2018-07-21T02:24:47.563Z,21.58
2018-07-21T02:28:51.595Z,21.53
2018-07-21T02:32:55.165Z,21.47
2018-07-21T02:36:58.669Z,21.40
2018-07-21T02:41:02.537Z,21.32
2018-07-21T02:45:06.181Z,21.27
2018-07-21T02:49:10.661Z,21.20
2018-07-21T02:53:15.239Z,21.16
2018-07-21T02:57:18.822Z,21.13
2018-07-21T03:01:22.464Z,21.11
2018-07-21T03:05:26.113Z,21.09
2018-07-21T03:09:29.860Z,21.08
2018-07-21T03:13:36.020Z,21.06
2018-07-21T03:17:39.730Z,21.06
2018-07-21T03:21:43.416Z,21.05
2018-07-21T03:25:46.982Z,21.04
2018-07-21T03:29:50.732Z,21.05
2018-07-21T03:33:54.573Z,21.05
2018-07-21T03:37:58.345Z,21.05
2018-07-21T03:42:01.950Z,21.03
2018-07-21T03:46:06.233Z,21.02
2018-07-21T03:50:09.973Z,21.02
2018-07-21T03:54:13.882Z,21.02
2018-07-21T03:58:17.534Z,21.01
2018-07-21T04:02:21.216Z,21.00
2018-07-21T04:06:25.889Z,20.99
2018-07-21T04:10:29.709Z,20.96
2018-07-21T04:14:33.426Z,20.94
2018-07-21T04:18:37.206Z,20.93
2018-07-21T04:22:41.012Z,20.94
2018-07-21T04:26:45.033Z,20.94
2018-07-21T04:30:49.278Z,20.96
2018-07-21T04:34:52.994Z,21.00
2018-07-21T04:38:56.933Z,21.04
2018-07-21T04:43:00.707Z,21.10
2018-07-21T04:47:04.540Z,21.15
2018-07-21T04:51:08.815Z,21.20
2018-07-21T04:55:12.554Z,21.26
2018-07-21T04:59:16.218Z,21.33
2018-07-21T05:03:19.858Z,21.41
2018-07-21T05:07:23.577Z,21.50
2018-07-21T05:11:27.296Z,21.59
2018-07-21T05:15:31.089Z,21.68
2018-07-21T05:19:35.029Z,21.83
2018-07-21T05:23:41.798Z,21.98
2018-07-21T05:27:45.231Z,22.15
2018-07-21T05:31:48.688Z,22.34
2018-07-21T05:35:52.159Z,22.52
2018-07-21T05:39:55.625Z,22.70
2018-07-21T05:43:59.157Z,22.89
2018-07-21T05:48:02.643Z,23.16
2018-07-21T05:52:06.127Z,23.43
2018-07-21T05:56:09.563Z,23.76
2018-07-21T06:00:14.022Z,23.94
2018-07-21T06:04:17.481Z,24.10
2018-07-21T06:08:20.910Z,24.26
2018-07-21T06:12:24.370Z,24.48
2018-07-21T06:16:27.844Z,24.59
2018-07-21T06:20:31.295Z,24.76
2018-07-21T06:24:34.773Z,24.98
2018-07-21T06:28:38.215Z,25.19
2018-07-21T06:32:41.851Z,25.46
2018-07-21T06:36:45.331Z,25.68
2018-07-21T06:40:48.795Z,25.84
2018-07-21T06:44:52.248Z,25.99
2018-07-21T06:48:55.803Z,26.19
2018-07-21T06:52:59.247Z,26.42
2018-07-21T06:57:02.687Z,26.54
2018-07-21T07:01:06.463Z,26.63
2018-07-21T07:05:10.252Z,26.68
2018-07-21T07:09:13.718Z,26.67
2018-07-21T07:13:17.215Z,26.71
2018-07-21T07:17:20.657Z,26.87
2018-07-21T07:21:24.105Z,26.93
2018-07-21T07:25:27.574Z,26.95
2018-07-21T07:29:31.029Z,27.11
2018-07-21T07:33:34.522Z,27.37
2018-07-21T07:37:38.018Z,27.52
2018-07-21T07:41:41.497Z,27.72
2018-07-21T07:45:44.992Z,27.94
2018-07-21T07:49:48.485Z,28.06
2018-07-21T07:53:51.958Z,28.18
2018-07-21T07:57:55.440Z,28.38
2018-07-21T08:01:58.902Z,28.49
2018-07-21T08:06:02.431Z,28.57
2018-07-21T08:10:06.059Z,28.71
2018-07-21T08:14:09.550Z,28.96
2018-07-21T08:18:12.983Z,29.12
2018-07-21T08:22:16.455Z,29.21
2018-07-21T08:26:19.941Z,29.33
2018-07-21T08:30:23.392Z,29.47
2018-07-21T08:34:26.899Z,29.47
2018-07-21T08:38:30.438Z,29.35
2018-07-21T08:42:33.895Z,29.46
2018-07-21T08:46:37.367Z,29.66
2018-07-21T08:50:40.790Z,29.64
2018-07-21T08:54:44.319Z,29.72
2018-07-21T08:58:47.772Z,29.73
2018-07-21T09:02:51.313Z,29.81
2018-07-21T09:06:54.814Z,29.97
2018-07-21T09:10:58.268Z,30.06
2018-07-21T09:15:01.747Z,30.12
2018-07-21T09:19:05.492Z,30.15
2018-07-21T09:23:08.938Z,30.17
2018-07-21T09:27:12.381Z,30.20
2018-07-21T09:31:15.926Z,30.28
2018-07-21T09:35:19.387Z,30.24
2018-07-21T09:39:22.874Z,30.23
2018-07-21T09:43:26.283Z,30.21
2018-07-21T09:47:29.753Z,30.21
2018-07-21T09:51:33.227Z,30.16
2018-07-21T09:55:36.738Z,30.03
2018-07-21T09:59:40.233Z,30.06
2018-07-21T10:03:43.724Z,30.10
2018-07-21T10:07:47.261Z,30.01
2018-07-21T10:11:50.791Z,30.02
2018-07-21T10:15:54.263Z,30.11
2018-07-21T10:19:57.757Z,30.16
2018-07-21T10:25:05.139Z,30.21
2018-07-21T10:29:12.246Z,30.24
2018-07-21T10:33:15.859Z,30.23
2018-07-21T10:37:19.284Z,30.20
2018-07-21T10:41:22.754Z,30.12
2018-07-21T10:45:26.516Z,30.03
2018-07-21T10:49:29.974Z,29.96
2018-07-21T10:53:34.479Z,29.92
2018-07-21T10:57:37.890Z,29.95
2018-07-21T11:01:41.334Z,30.01
2018-07-21T11:05:44.861Z,29.97
2018-07-21T11:09:48.334Z,29.91
2018-07-21T11:13:51.927Z,29.98
2018-07-21T11:17:55.456Z,30.03
2018-07-21T11:21:58.948Z,30.04
2018-07-21T11:26:02.436Z,30.06
2018-07-21T11:30:06.536Z,30.09
2018-07-21T11:34:10.008Z,30.12
2018-07-21T11:38:13.443Z,30.08
2018-07-21T11:42:16.927Z,30.12
2018-07-21T11:46:20.388Z,30.21
2018-07-21T11:50:23.949Z,30.31
2018-07-21T11:54:27.409Z,30.41
2018-07-21T11:58:30.914Z,30.53
2018-07-21T12:02:34.447Z,30.77
2018-07-21T12:06:38.066Z,31.03
2018-07-21T12:10:41.623Z,31.17
2018-07-21T12:14:45.355Z,31.27
2018-07-21T12:18:48.986Z,31.41
2018-07-21T12:22:52.530Z,31.50
2018-07-21T12:26:56.110Z,31.60
2018-07-21T12:30:59.717Z,31.60
2018-07-21T12:35:03.306Z,31.59
2018-07-21T12:39:08.667Z,31.65
2018-07-21T12:43:12.362Z,31.64
2018-07-21T12:47:15.976Z,31.74
2018-07-21T12:51:19.609Z,31.85
2018-07-21T12:55:23.099Z,31.96
2018-07-21T12:59:26.631Z,31.93
2018-07-21T13:03:30.183Z,32.00
2018-07-21T13:07:33.698Z,32.03
2018-07-21T13:11:37.230Z,32.04
2018-07-21T13:15:40.695Z,32.12
2018-07-21T13:19:44.168Z,32.12
2018-07-21T13:23:47.712Z,32.14
2018-07-21T13:27:51.238Z,32.24
2018-07-21T13:31:54.779Z,32.35
2018-07-21T13:35:58.272Z,32.38
2018-07-21T13:40:01.753Z,32.26
2018-07-21T13:44:05.286Z,32.30
2018-07-21T13:48:08.729Z,32.39
2018-07-21T13:52:12.188Z,32.37
2018-07-21T13:56:15.669Z,32.28
2018-07-21T14:00:19.111Z,32.28
2018-07-21T14:04:22.633Z,32.24
2018-07-21T14:08:26.109Z,32.25
2018-07-21T14:12:29.658Z,32.28
2018-07-21T14:16:33.154Z,32.11
2018-07-21T14:20:36.734Z,32.04
2018-07-21T14:24:40.306Z,32.05
2018-07-21T14:28:43.775Z,32.13
2018-07-21T14:32:47.351Z,32.19
2018-07-21T14:36:50.894Z,32.28
2018-07-21T14:40:54.482Z,32.27
2018-07-21T14:44:57.995Z,32.22
2018-07-21T14:49:01.543Z,32.13
2018-07-21T14:53:05.093Z,32.06
2018-07-21T14:57:08.851Z,31.94
2018-07-21T15:01:12.540Z,31.86
2018-07-21T15:05:16.154Z,31.74
2018-07-21T15:09:19.875Z,31.61
2018-07-21T15:13:23.450Z,31.41
2018-07-21T15:17:26.871Z,31.19
2018-07-21T15:21:30.328Z,30.81
2018-07-21T15:25:33.803Z,30.47
2018-07-21T15:29:37.298Z,30.20
2018-07-21T15:33:40.749Z,29.82
2018-07-21T15:37:44.194Z,29.35
2018-07-21T15:41:47.763Z,29.09
2018-07-21T15:45:51.200Z,28.82
2018-07-21T15:49:54.737Z,28.34
2018-07-21T15:53:58.282Z,27.88
2018-07-21T15:58:02.036Z,27.64
2018-07-21T16:02:05.528Z,27.45
2018-07-21T16:06:08.998Z,27.19
2018-07-21T16:10:12.442Z,26.93
2018-07-21T16:14:15.861Z,26.66
2018-07-21T16:18:19.334Z,26.39
2018-07-21T16:22:22.754Z,26.28
2018-07-21T16:26:26.197Z,26.19
2018-07-21T16:30:29.657Z,26.09
2018-07-21T16:34:33.172Z,26.04
2018-07-21T16:38:36.593Z,25.89
2018-07-21T16:42:40.089Z,25.73
2018-07-21T16:46:43.520Z,25.56
2018-07-21T16:50:46.961Z,25.44
2018-07-21T16:54:50.410Z,25.33
2018-07-21T16:58:53.846Z,25.15
2018-07-21T17:02:57.307Z,25.01
2018-07-21T17:07:01.398Z,24.84
2018-07-21T17:11:04.902Z,24.64
2018-07-21T17:15:08.567Z,24.54
2018-07-21T17:19:12.052Z,24.48
2018-07-21T17:23:16.496Z,24.46
2018-07-21T17:27:22.536Z,24.38
2018-07-21T17:31:26.414Z,24.25
2018-07-21T17:35:30.263Z,24.23
2018-07-21T17:39:33.713Z,24.20
2018-07-21T17:43:37.226Z,24.17
2018-07-21T17:47:40.662Z,24.16
2018-07-21T17:51:44.135Z,24.09
2018-07-21T17:55:47.638Z,24.00
2018-07-21T17:59:51.087Z,23.95
2018-07-21T18:03:54.578Z,23.80
2018-07-21T18:07:58.022Z,23.75
2018-07-21T18:12:01.479Z,23.78
2018-07-21T18:16:04.997Z,23.80
2018-07-21T18:20:08.530Z,23.80
2018-07-21T18:24:11.917Z,23.81
2018-07-21T18:28:15.452Z,23.80
2018-07-21T18:32:18.924Z,23.79
2018-07-21T18:36:22.372Z,23.76
2018-07-21T18:40:25.809Z,23.72
2018-07-21T18:44:29.247Z,23.69
2018-07-21T18:48:32.709Z,23.63
2018-07-21T18:52:36.173Z,23.59
2018-07-21T18:56:39.629Z,23.56
2018-07-21T19:00:43.096Z,23.56
2018-07-21T19:04:46.547Z,23.56
2018-07-21T19:08:55.304Z,23.57
2018-07-21T19:12:58.781Z,23.55
2018-07-21T19:17:02.238Z,23.54
2018-07-21T19:21:10.906Z,23.50
2018-07-21T19:25:19.810Z,23.48
2018-07-21T19:29:23.270Z,23.44
2018-07-21T19:33:26.709Z,23.45
2018-07-21T19:37:35.658Z,23.43
2018-07-21T19:41:44.196Z,23.41
2018-07-21T19:45:47.741Z,23.39
2018-07-21T19:49:51.112Z,23.34
2018-07-21T19:53:54.578Z,23.25
2018-07-21T19:57:58.091Z,23.21
2018-07-21T20:02:01.591Z,23.18
2018-07-21T20:06:05.008Z,23.20
2018-07-21T20:10:08.439Z,23.19
2018-07-21T20:14:11.914Z,23.18
2018-07-21T20:18:15.387Z,23.18
2018-07-21T20:22:18.827Z,23.14
2018-07-21T20:26:22.294Z,23.14
2018-07-21T20:30:25.791Z,23.12
2018-07-21T20:34:29.191Z,23.10
2018-07-21T20:38:32.661Z,23.05
2018-07-21T20:42:36.108Z,22.98
2018-07-21T20:46:39.555Z,22.87
2018-07-21T20:50:43.076Z,22.82
2018-07-21T20:54:46.526Z,22.78
2018-07-21T20:58:49.992Z,22.70
2018-07-21T21:02:53.482Z,22.60
2018-07-21T21:06:56.956Z,22.52
2018-07-21T21:11:00.406Z,22.50
2018-07-21T21:15:03.914Z,22.46
2018-07-21T21:19:07.387Z,22.47
2018-07-21T21:23:11.845Z,22.51
2018-07-21T21:27:15.310Z,22.55
2018-07-21T21:31:18.789Z,22.58
2018-07-21T21:35:22.252Z,22.60
2018-07-21T21:39:25.719Z,22.61
2018-07-21T21:43:29.181Z,22.63
2018-07-21T21:47:32.658Z,22.63
2018-07-21T21:51:36.128Z,22.63
2018-07-21T21:55:39.577Z,22.61
2018-07-21T21:59:43.049Z,22.59
2018-07-21T22:03:46.561Z,22.59
2018-07-21T22:07:50.056Z,22.60
2018-07-21T22:11:53.508Z,22.59
2018-07-21T22:15:57.196Z,22.54
2018-07-21T22:20:00.692Z,22.43
2018-07-21T22:24:04.139Z,22.33
2018-07-21T22:28:08.142Z,22.24
2018-07-21T22:32:11.870Z,22.17
2018-07-21T22:36:15.342Z,22.13
2018-07-21T22:40:18.867Z,22.10
2018-07-21T22:44:22.343Z,22.12
2018-07-21T22:48:25.852Z,22.12
2018-07-21T22:52:29.295Z,22.13
2018-07-21T22:56:32.755Z,22.16
2018-07-21T23:00:36.218Z,22.18
2018-07-21T23:04:39.674Z,22.18
2018-07-21T23:08:43.152Z,22.19
2018-07-21T23:12:46.660Z,22.21
2018-07-21T23:16:50.125Z,22.17
2018-07-21T23:20:53.572Z,22.15
2018-07-21T23:24:57.018Z,22.13
2018-07-21T23:29:00.466Z,22.14
2018-07-21T23:33:03.979Z,22.14
2018-07-21T23:37:07.461Z,22.09
2018-07-21T23:41:10.955Z,22.06
2018-07-21T23:45:14.427Z,22.02
2018-07-21T23:49:17.840Z,21.98
2018-07-21T23:53:21.287Z,21.93
2018-07-21T23:57:24.746Z,21.90
